sensor_id;sensor_type;location;lat;lon;timestamp;temperature;humidity
14471;DHT22;7321;50.802;4.336;2022-07-19T00:01:40;27.40;82.50
14471;DHT22;7321;50.802;4.336;2022-07-19T00:04:06;27.40;83.20
14471;DHT22;7321;50.802;4.336;2022-07-19T00:06:32;27.50;83.70
14471;DHT22;7321;50.802;4.336;2022-07-19T00:08:58;27.50;83.20
14471;DHT22;7321;50.802;4.336;2022-07-19T00:11:24;27.40;83.00
14471;DHT22;7321;50.802;4.336;2022-07-19T00:13:50;27.40;83.20
14471;DHT22;7321;50.802;4.336;2022-07-19T00:16:15;27.40;83.50
14471;DHT22;7321;50.802;4.336;2022-07-19T00:18:42;27.30;84.00
14471;DHT22;7321;50.802;4.336;2022-07-19T00:21:07;27.20;84.40
14471;DHT22;7321;50.802;4.336;2022-07-19T00:23:33;27.20;84.60
14471;DHT22;7321;50.802;4.336;2022-07-19T00:25:59;27.10;84.20
14471;DHT22;7321;50.802;4.336;2022-07-19T00:28:26;27.00;84.70
14471;DHT22;7321;50.802;4.336;2022-07-19T00:30:51;27.00;83.60
14471;DHT22;7321;50.802;4.336;2022-07-19T00:33:17;26.90;83.80
14471;DHT22;7321;50.802;4.336;2022-07-19T00:35:43;26.90;83.60
14471;DHT22;7321;50.802;4.336;2022-07-19T00:38:12;27.00;83.20
14471;DHT22;7321;50.802;4.336;2022-07-19T00:40:39;27.00;83.10
14471;DHT22;7321;50.802;4.336;2022-07-19T00:43:07;27.00;83.10
14471;DHT22;7321;50.802;4.336;2022-07-19T00:45:33;27.10;82.60
14471;DHT22;7321;50.802;4.336;2022-07-19T00:47:59;27.00;82.70
14471;DHT22;7321;50.802;4.336;2022-07-19T00:50:24;27.00;82.40
14471;DHT22;7321;50.802;4.336;2022-07-19T00:52:54;27.00;83.20
14471;DHT22;7321;50.802;4.336;2022-07-19T00:55:22;27.00;83.10
14471;DHT22;7321;50.802;4.336;2022-07-19T00:57:49;26.90;82.90
14471;DHT22;7321;50.802;4.336;2022-07-19T01:00:16;27.00;84.60
14471;DHT22;7321;50.802;4.336;2022-07-19T01:02:43;27.00;83.40
14471;DHT22;7321;50.802;4.336;2022-07-19T01:05:10;26.90;83.70
14471;DHT22;7321;50.802;4.336;2022-07-19T01:07:39;26.90;84.00
14471;DHT22;7321;50.802;4.336;2022-07-19T01:10:05;27.10;84.90
14471;DHT22;7321;50.802;4.336;2022-07-19T01:12:41;27.00;84.70
14471;DHT22;7321;50.802;4.336;2022-07-19T01:15:19;26.90;84.80
14471;DHT22;7321;50.802;4.336;2022-07-19T01:17:46;26.90;82.70
14471;DHT22;7321;50.802;4.336;2022-07-19T01:20:12;26.90;82.20
14471;DHT22;7321;50.802;4.336;2022-07-19T01:22:38;26.80;81.80
14471;DHT22;7321;50.802;4.336;2022-07-19T01:25:04;26.80;82.00
14471;DHT22;7321;50.802;4.336;2022-07-19T01:27:30;26.70;81.90
14471;DHT22;7321;50.802;4.336;2022-07-19T01:29:56;26.70;82.10
14471;DHT22;7321;50.802;4.336;2022-07-19T01:32:22;26.70;82.90
14471;DHT22;7321;50.802;4.336;2022-07-19T01:34:48;26.70;83.80
14471;DHT22;7321;50.802;4.336;2022-07-19T01:37:16;26.70;84.80
14471;DHT22;7321;50.802;4.336;2022-07-19T01:39:42;26.60;86.50
14471;DHT22;7321;50.802;4.336;2022-07-19T01:42:07;26.40;88.80
14471;DHT22;7321;50.802;4.336;2022-07-19T01:44:33;26.40;90.10
14471;DHT22;7321;50.802;4.336;2022-07-19T01:46:59;26.30;90.60
14471;DHT22;7321;50.802;4.336;2022-07-19T01:49:24;26.30;90.70
14471;DHT22;7321;50.802;4.336;2022-07-19T01:51:50;26.30;91.20
14471;DHT22;7321;50.802;4.336;2022-07-19T01:54:16;26.20;91.20
14471;DHT22;7321;50.802;4.336;2022-07-19T01:56:43;26.20;91.10
14471;DHT22;7321;50.802;4.336;2022-07-19T01:59:09;26.10;90.30
14471;DHT22;7321;50.802;4.336;2022-07-19T02:01:34;26.20;89.00
14471;DHT22;7321;50.802;4.336;2022-07-19T02:04:00;26.20;89.40
14471;DHT22;7321;50.802;4.336;2022-07-19T02:06:27;26.30;90.60
14471;DHT22;7321;50.802;4.336;2022-07-19T02:08:53;26.20;90.40
14471;DHT22;7321;50.802;4.336;2022-07-19T02:11:18;26.10;90.60
14471;DHT22;7321;50.802;4.336;2022-07-19T02:14:04;26.10;90.70
14471;DHT22;7321;50.802;4.336;2022-07-19T02:16:30;26.10;90.70
14471;DHT22;7321;50.802;4.336;2022-07-19T02:18:56;26.00;91.00
14471;DHT22;7321;50.802;4.336;2022-07-19T02:21:22;26.10;91.40
14471;DHT22;7321;50.802;4.336;2022-07-19T02:23:47;26.00;91.90
14471;DHT22;7321;50.802;4.336;2022-07-19T02:26:13;25.90;92.40
14471;DHT22;7321;50.802;4.336;2022-07-19T02:28:39;25.80;93.10
14471;DHT22;7321;50.802;4.336;2022-07-19T02:31:05;25.70;93.70
14471;DHT22;7321;50.802;4.336;2022-07-19T02:33:31;25.70;94.10
14471;DHT22;7321;50.802;4.336;2022-07-19T02:35:57;25.70;94.30
14471;DHT22;7321;50.802;4.336;2022-07-19T02:38:22;25.70;94.50
14471;DHT22;7321;50.802;4.336;2022-07-19T02:40:48;25.60;94.90
14471;DHT22;7321;50.802;4.336;2022-07-19T02:43:14;25.50;95.00
14471;DHT22;7321;50.802;4.336;2022-07-19T02:45:40;25.50;95.30
14471;DHT22;7321;50.802;4.336;2022-07-19T02:48:06;25.60;95.90
14471;DHT22;7321;50.802;4.336;2022-07-19T02:50:33;25.50;95.90
14471;DHT22;7321;50.802;4.336;2022-07-19T02:52:59;25.50;96.50
14471;DHT22;7321;50.802;4.336;2022-07-19T02:55:25;25.50;96.70
14471;DHT22;7321;50.802;4.336;2022-07-19T02:57:51;25.50;97.10
14471;DHT22;7321;50.802;4.336;2022-07-19T03:00:16;25.60;97.10
14471;DHT22;7321;50.802;4.336;2022-07-19T03:02:45;25.60;97.40
14471;DHT22;7321;50.802;4.336;2022-07-19T03:05:11;25.40;97.70
14471;DHT22;7321;50.802;4.336;2022-07-19T03:07:36;25.40;98.10
14471;DHT22;7321;50.802;4.336;2022-07-19T03:10:03;25.40;98.20
14471;DHT22;7321;50.802;4.336;2022-07-19T03:12:29;25.30;98.30
14471;DHT22;7321;50.802;4.336;2022-07-19T03:14:55;25.30;98.70
14471;DHT22;7321;50.802;4.336;2022-07-19T03:17:21;25.30;99.10
14471;DHT22;7321;50.802;4.336;2022-07-19T03:19:46;25.20;99.50
14471;DHT22;7321;50.802;4.336;2022-07-19T03:22:12;25.20;99.60
14471;DHT22;7321;50.802;4.336;2022-07-19T03:24:38;25.20;99.30
14471;DHT22;7321;50.802;4.336;2022-07-19T03:27:04;25.20;99.20
14471;DHT22;7321;50.802;4.336;2022-07-19T03:29:30;25.20;99.30
14471;DHT22;7321;50.802;4.336;2022-07-19T03:31:56;25.20;99.40
14471;DHT22;7321;50.802;4.336;2022-07-19T03:34:22;25.10;99.50
14471;DHT22;7321;50.802;4.336;2022-07-19T03:36:48;25.10;99.70
14471;DHT22;7321;50.802;4.336;2022-07-19T03:39:14;25.10;99.90
14471;DHT22;7321;50.802;4.336;2022-07-19T03:41:40;25.20;99.90
14471;DHT22;7321;50.802;4.336;2022-07-19T03:44:05;25.10;99.60
14471;DHT22;7321;50.802;4.336;2022-07-19T03:46:31;25.10;99.90
14471;DHT22;7321;50.802;4.336;2022-07-19T03:48:57;25.20;99.90
14471;DHT22;7321;50.802;4.336;2022-07-19T03:51:23;25.20;99.90
14471;DHT22;7321;50.802;4.336;2022-07-19T03:53:49;25.20;99.90
14471;DHT22;7321;50.802;4.336;2022-07-19T03:56:16;25.20;99.90
14471;DHT22;7321;50.802;4.336;2022-07-19T03:58:43;25.20;99.90
14471;DHT22;7321;50.802;4.336;2022-07-19T04:01:10;25.20;99.90
14471;DHT22;7321;50.802;4.336;2022-07-19T04:03:37;25.10;99.90
14471;DHT22;7321;50.802;4.336;2022-07-19T04:06:07;25.00;99.90
14471;DHT22;7321;50.802;4.336;2022-07-19T04:08:33;25.10;99.90
14471;DHT22;7321;50.802;4.336;2022-07-19T04:10:59;25.00;99.90
14471;DHT22;7321;50.802;4.336;2022-07-19T04:13:25;25.00;99.90
14471;DHT22;7321;50.802;4.336;2022-07-19T04:15:51;25.10;99.90
14471;DHT22;7321;50.802;4.336;2022-07-19T04:18:16;25.00;99.90
14471;DHT22;7321;50.802;4.336;2022-07-19T04:20:42;25.20;99.90
14471;DHT22;7321;50.802;4.336;2022-07-19T04:23:08;25.20;99.90
14471;DHT22;7321;50.802;4.336;2022-07-19T04:25:34;25.20;99.90
14471;DHT22;7321;50.802;4.336;2022-07-19T04:28:00;25.30;99.90
14471;DHT22;7321;50.802;4.336;2022-07-19T04:30:28;25.40;99.90
14471;DHT22;7321;50.802;4.336;2022-07-19T04:32:53;25.40;99.90
14471;DHT22;7321;50.802;4.336;2022-07-19T04:35:20;25.20;99.90
14471;DHT22;7321;50.802;4.336;2022-07-19T04:37:45;25.30;99.90
14471;DHT22;7321;50.802;4.336;2022-07-19T04:40:11;25.40;99.90
14471;DHT22;7321;50.802;4.336;2022-07-19T04:42:37;25.40;99.90
14471;DHT22;7321;50.802;4.336;2022-07-19T04:45:04;25.60;99.90
14471;DHT22;7321;50.802;4.336;2022-07-19T04:47:30;25.70;99.90
14471;DHT22;7321;50.802;4.336;2022-07-19T04:49:56;25.70;99.90
14471;DHT22;7321;50.802;4.336;2022-07-19T04:52:22;25.70;99.50
14471;DHT22;7321;50.802;4.336;2022-07-19T04:54:47;25.70;99.00
14471;DHT22;7321;50.802;4.336;2022-07-19T04:57:13;25.70;98.90
14471;DHT22;7321;50.802;4.336;2022-07-19T04:59:39;25.80;98.70
14471;DHT22;7321;50.802;4.336;2022-07-19T05:02:05;25.90;98.30
14471;DHT22;7321;50.802;4.336;2022-07-19T05:04:31;26.00;98.00
14471;DHT22;7321;50.802;4.336;2022-07-19T05:06:57;26.10;97.90
14471;DHT22;7321;50.802;4.336;2022-07-19T05:09:24;26.30;97.70
14471;DHT22;7321;50.802;4.336;2022-07-19T05:11:50;26.40;97.20
14471;DHT22;7321;50.802;4.336;2022-07-19T05:14:16;26.50;97.00
14471;DHT22;7321;50.802;4.336;2022-07-19T05:16:42;26.60;96.80
14471;DHT22;7321;50.802;4.336;2022-07-19T05:19:10;26.80;96.30
14471;DHT22;7321;50.802;4.336;2022-07-19T05:21:36;26.80;96.00
14471;DHT22;7321;50.802;4.336;2022-07-19T05:24:02;26.80;95.80
14471;DHT22;7321;50.802;4.336;2022-07-19T05:26:28;26.80;95.90
14471;DHT22;7321;50.802;4.336;2022-07-19T05:28:54;27.00;95.80
14471;DHT22;7321;50.802;4.336;2022-07-19T05:31:20;27.10;95.70
14471;DHT22;7321;50.802;4.336;2022-07-19T05:33:46;27.20;95.30
14471;DHT22;7321;50.802;4.336;2022-07-19T05:36:12;27.20;95.10
14471;DHT22;7321;50.802;4.336;2022-07-19T05:38:38;27.30;94.50
14471;DHT22;7321;50.802;4.336;2022-07-19T05:41:05;27.50;94.50
14471;DHT22;7321;50.802;4.336;2022-07-19T05:43:31;27.60;94.10
14471;DHT22;7321;50.802;4.336;2022-07-19T05:45:57;27.70;93.90
14471;DHT22;7321;50.802;4.336;2022-07-19T05:48:23;27.90;93.60
14471;DHT22;7321;50.802;4.336;2022-07-19T05:50:51;28.00;93.20
14471;DHT22;7321;50.802;4.336;2022-07-19T05:53:17;28.00;92.20
14471;DHT22;7321;50.802;4.336;2022-07-19T05:55:44;28.10;93.00
14471;DHT22;7321;50.802;4.336;2022-07-19T05:58:10;28.20;92.40
14471;DHT22;7321;50.802;4.336;2022-07-19T06:00:36;28.30;91.90
14471;DHT22;7321;50.802;4.336;2022-07-19T06:03:02;28.40;91.70
14471;DHT22;7321;50.802;4.336;2022-07-19T06:05:28;28.50;91.40
14471;DHT22;7321;50.802;4.336;2022-07-19T06:07:54;28.60;91.10
14471;DHT22;7321;50.802;4.336;2022-07-19T06:10:20;28.70;91.10
14471;DHT22;7321;50.802;4.336;2022-07-19T06:12:45;28.80;90.40
14471;DHT22;7321;50.802;4.336;2022-07-19T06:15:11;28.90;90.40
14471;DHT22;7321;50.802;4.336;2022-07-19T06:17:37;29.00;90.30
14471;DHT22;7321;50.802;4.336;2022-07-19T06:20:03;28.90;90.30
14471;DHT22;7321;50.802;4.336;2022-07-19T06:22:32;29.00;90.40
14471;DHT22;7321;50.802;4.336;2022-07-19T06:24:58;29.10;89.20
14471;DHT22;7321;50.802;4.336;2022-07-19T06:27:24;29.10;89.50
14471;DHT22;7321;50.802;4.336;2022-07-19T06:29:49;29.10;89.40
14471;DHT22;7321;50.802;4.336;2022-07-19T06:32:15;29.20;89.20
14471;DHT22;7321;50.802;4.336;2022-07-19T06:34:41;29.40;88.80
14471;DHT22;7321;50.802;4.336;2022-07-19T06:37:07;29.50;88.40
14471;DHT22;7321;50.802;4.336;2022-07-19T06:39:32;29.60;88.70
14471;DHT22;7321;50.802;4.336;2022-07-19T06:41:58;29.70;88.40
14471;DHT22;7321;50.802;4.336;2022-07-19T06:44:24;29.90;87.60
14471;DHT22;7321;50.802;4.336;2022-07-19T06:46:49;29.90;86.90
14471;DHT22;7321;50.802;4.336;2022-07-19T06:49:15;29.90;86.70
14471;DHT22;7321;50.802;4.336;2022-07-19T06:51:41;30.00;86.90
14471;DHT22;7321;50.802;4.336;2022-07-19T06:54:07;30.10;86.50
14471;DHT22;7321;50.802;4.336;2022-07-19T06:56:32;30.20;86.30
14471;DHT22;7321;50.802;4.336;2022-07-19T06:58:58;30.10;85.80
14471;DHT22;7321;50.802;4.336;2022-07-19T07:01:24;30.10;85.90
14471;DHT22;7321;50.802;4.336;2022-07-19T07:03:50;30.10;86.70
14471;DHT22;7321;50.802;4.336;2022-07-19T07:06:16;30.30;86.80
14471;DHT22;7321;50.802;4.336;2022-07-19T07:08:42;30.40;86.60
14471;DHT22;7321;50.802;4.336;2022-07-19T07:11:07;30.50;86.00
14471;DHT22;7321;50.802;4.336;2022-07-19T07:13:33;30.60;85.80
14471;DHT22;7321;50.802;4.336;2022-07-19T07:15:59;30.60;85.20
14471;DHT22;7321;50.802;4.336;2022-07-19T07:18:25;30.40;85.40
14471;DHT22;7321;50.802;4.336;2022-07-19T07:20:51;30.40;86.00
14471;DHT22;7321;50.802;4.336;2022-07-19T07:23:16;30.40;85.90
14471;DHT22;7321;50.802;4.336;2022-07-19T07:25:42;30.60;86.60
14471;DHT22;7321;50.802;4.336;2022-07-19T07:28:08;30.70;85.70
14471;DHT22;7321;50.802;4.336;2022-07-19T07:30:33;30.70;85.60
14471;DHT22;7321;50.802;4.336;2022-07-19T07:33:00;30.80;85.80
14471;DHT22;7321;50.802;4.336;2022-07-19T07:35:26;30.80;85.30
14471;DHT22;7321;50.802;4.336;2022-07-19T07:37:51;30.70;85.10
14471;DHT22;7321;50.802;4.336;2022-07-19T07:40:17;30.80;85.50
14471;DHT22;7321;50.802;4.336;2022-07-19T07:42:43;30.80;85.10
14471;DHT22;7321;50.802;4.336;2022-07-19T07:45:09;30.90;85.00
14471;DHT22;7321;50.802;4.336;2022-07-19T07:47:36;31.10;85.00
14471;DHT22;7321;50.802;4.336;2022-07-19T07:50:04;31.20;83.70
14471;DHT22;7321;50.802;4.336;2022-07-19T07:52:30;31.20;83.10
14471;DHT22;7321;50.802;4.336;2022-07-19T07:54:55;31.30;82.70
14471;DHT22;7321;50.802;4.336;2022-07-19T07:57:21;31.50;82.40
14471;DHT22;7321;50.802;4.336;2022-07-19T07:59:47;31.60;81.40
14471;DHT22;7321;50.802;4.336;2022-07-19T08:02:13;31.70;82.00
14471;DHT22;7321;50.802;4.336;2022-07-19T08:04:39;31.70;81.50
14471;DHT22;7321;50.802;4.336;2022-07-19T08:07:04;31.80;81.70
14471;DHT22;7321;50.802;4.336;2022-07-19T08:09:30;31.80;80.70
14471;DHT22;7321;50.802;4.336;2022-07-19T08:11:56;31.90;80.80
14471;DHT22;7321;50.802;4.336;2022-07-19T08:14:22;32.00;79.80
14471;DHT22;7321;50.802;4.336;2022-07-19T08:16:48;32.00;79.50
14471;DHT22;7321;50.802;4.336;2022-07-19T08:19:13;32.10;79.30
14471;DHT22;7321;50.802;4.336;2022-07-19T08:21:39;32.20;78.40
14471;DHT22;7321;50.802;4.336;2022-07-19T08:24:05;32.30;78.00
14471;DHT22;7321;50.802;4.336;2022-07-19T08:26:31;32.50;77.00
14471;DHT22;7321;50.802;4.336;2022-07-19T08:28:57;32.50;76.80
14471;DHT22;7321;50.802;4.336;2022-07-19T08:31:23;32.50;77.00
14471;DHT22;7321;50.802;4.336;2022-07-19T08:33:48;32.60;76.40
14471;DHT22;7321;50.802;4.336;2022-07-19T08:36:14;32.70;76.70
14471;DHT22;7321;50.802;4.336;2022-07-19T08:38:40;32.80;77.50
14471;DHT22;7321;50.802;4.336;2022-07-19T08:41:07;32.90;75.50
14471;DHT22;7321;50.802;4.336;2022-07-19T08:43:33;33.10;77.30
14471;DHT22;7321;50.802;4.336;2022-07-19T08:46:02;33.20;77.10
14471;DHT22;7321;50.802;4.336;2022-07-19T08:48:36;33.30;76.60
14471;DHT22;7321;50.802;4.336;2022-07-19T08:51:03;33.50;75.10
14471;DHT22;7321;50.802;4.336;2022-07-19T08:53:31;33.50;75.00
14471;DHT22;7321;50.802;4.336;2022-07-19T08:56:00;33.50;75.20
14471;DHT22;7321;50.802;4.336;2022-07-19T08:58:26;33.50;75.60
14471;DHT22;7321;50.802;4.336;2022-07-19T09:00:52;33.40;75.60
14471;DHT22;7321;50.802;4.336;2022-07-19T09:03:18;33.60;75.40
14471;DHT22;7321;50.802;4.336;2022-07-19T09:05:47;33.70;75.10
14471;DHT22;7321;50.802;4.336;2022-07-19T09:08:17;33.80;75.20
14471;DHT22;7321;50.802;4.336;2022-07-19T09:10:45;33.90;74.10
14471;DHT22;7321;50.802;4.336;2022-07-19T09:13:31;34.10;72.50
14471;DHT22;7321;50.802;4.336;2022-07-19T09:15:57;34.30;71.80
14471;DHT22;7321;50.802;4.336;2022-07-19T09:18:31;34.30;70.90
14471;DHT22;7321;50.802;4.336;2022-07-19T09:20:59;34.40;71.70
14471;DHT22;7321;50.802;4.336;2022-07-19T09:23:26;34.60;71.80
14471;DHT22;7321;50.802;4.336;2022-07-19T09:25:54;34.80;70.60
14471;DHT22;7321;50.802;4.336;2022-07-19T09:28:24;34.80;70.60
14471;DHT22;7321;50.802;4.336;2022-07-19T09:30:55;34.90;70.10
14471;DHT22;7321;50.802;4.336;2022-07-19T09:33:27;34.80;68.30
14471;DHT22;7321;50.802;4.336;2022-07-19T09:35:58;34.90;69.10
14471;DHT22;7321;50.802;4.336;2022-07-19T09:48:54;35.50;66.90
14471;DHT22;7321;50.802;4.336;2022-07-19T09:51:20;35.60;62.10
14471;DHT22;7321;50.802;4.336;2022-07-19T09:53:47;35.70;61.40
14471;DHT22;7321;50.802;4.336;2022-07-19T09:56:15;35.50;59.50
14471;DHT22;7321;50.802;4.336;2022-07-19T09:58:41;35.50;58.30
14471;DHT22;7321;50.802;4.336;2022-07-19T10:01:07;35.50;57.30
14471;DHT22;7321;50.802;4.336;2022-07-19T10:03:34;35.70;55.70
14471;DHT22;7321;50.802;4.336;2022-07-19T10:06:00;35.80;54.60
14471;DHT22;7321;50.802;4.336;2022-07-19T10:08:26;35.90;54.30
14471;DHT22;7321;50.802;4.336;2022-07-19T10:10:53;36.10;54.50
14471;DHT22;7321;50.802;4.336;2022-07-19T10:13:19;36.20;54.60
14471;DHT22;7321;50.802;4.336;2022-07-19T10:15:48;36.40;54.00
14471;DHT22;7321;50.802;4.336;2022-07-19T10:18:18;36.50;53.60
14471;DHT22;7321;50.802;4.336;2022-07-19T10:20:49;36.40;51.90
14471;DHT22;7321;50.802;4.336;2022-07-19T10:23:15;36.50;51.50
14471;DHT22;7321;50.802;4.336;2022-07-19T10:25:46;36.30;51.60
14471;DHT22;7321;50.802;4.336;2022-07-19T10:28:34;36.40;51.70
14471;DHT22;7321;50.802;4.336;2022-07-19T10:31:01;36.50;51.20
14471;DHT22;7321;50.802;4.336;2022-07-19T10:33:32;36.40;50.80
14471;DHT22;7321;50.802;4.336;2022-07-19T10:39:34;36.60;50.10
14471;DHT22;7321;50.802;4.336;2022-07-19T10:44:29;36.90;49.20
14471;DHT22;7321;50.802;4.336;2022-07-19T10:46:55;37.00;49.10
14471;DHT22;7321;50.802;4.336;2022-07-19T10:49:46;37.10;49.20
14471;DHT22;7321;50.802;4.336;2022-07-19T10:57:44;37.00;47.70
14471;DHT22;7321;50.802;4.336;2022-07-19T11:00:27;37.00;47.90
14471;DHT22;7321;50.802;4.336;2022-07-19T11:05:53;37.10;47.00
14471;DHT22;7321;50.802;4.336;2022-07-19T11:08:39;37.00;47.10
14471;DHT22;7321;50.802;4.336;2022-07-19T11:11:14;37.20;47.70
14471;DHT22;7321;50.802;4.336;2022-07-19T11:13:43;37.30;46.90
14471;DHT22;7321;50.802;4.336;2022-07-19T11:16:09;37.30;47.10
14471;DHT22;7321;50.802;4.336;2022-07-19T11:18:35;37.30;47.60
14471;DHT22;7321;50.802;4.336;2022-07-19T11:21:03;37.50;47.20
14471;DHT22;7321;50.802;4.336;2022-07-19T11:23:34;37.50;47.70
14471;DHT22;7321;50.802;4.336;2022-07-19T11:26:14;37.40;47.40
14471;DHT22;7321;50.802;4.336;2022-07-19T11:28:42;37.60;47.80
14471;DHT22;7321;50.802;4.336;2022-07-19T11:33:41;37.60;47.30
14471;DHT22;7321;50.802;4.336;2022-07-19T11:36:08;37.50;46.90
14471;DHT22;7321;50.802;4.336;2022-07-19T11:41:16;37.60;47.60
14471;DHT22;7321;50.802;4.336;2022-07-19T11:44:01;37.50;47.50
14471;DHT22;7321;50.802;4.336;2022-07-19T11:48:59;37.50;47.50
14471;DHT22;7321;50.802;4.336;2022-07-19T11:51:26;37.50;47.10
14471;DHT22;7321;50.802;4.336;2022-07-19T11:53:54;37.50;47.60
14471;DHT22;7321;50.802;4.336;2022-07-19T11:56:28;37.60;47.10
14471;DHT22;7321;50.802;4.336;2022-07-19T11:58:57;37.30;47.10
14471;DHT22;7321;50.802;4.336;2022-07-19T12:01:29;37.10;47.50
14471;DHT22;7321;50.802;4.336;2022-07-19T12:04:10;37.30;47.50
14471;DHT22;7321;50.802;4.336;2022-07-19T12:09:11;37.60;47.70
14471;DHT22;7321;50.802;4.336;2022-07-19T12:11:47;37.70;47.70
14471;DHT22;7321;50.802;4.336;2022-07-19T12:14:28;37.70;47.60
14471;DHT22;7321;50.802;4.336;2022-07-19T12:17:24;37.80;47.70
14471;DHT22;7321;50.802;4.336;2022-07-19T12:20:08;37.70;47.00
14471;DHT22;7321;50.802;4.336;2022-07-19T12:22:37;37.70;47.60
14471;DHT22;7321;50.802;4.336;2022-07-19T12:25:06;37.70;47.60
14471;DHT22;7321;50.802;4.336;2022-07-19T12:27:32;37.70;47.50
14471;DHT22;7321;50.802;4.336;2022-07-19T12:29:58;37.60;48.10
14471;DHT22;7321;50.802;4.336;2022-07-19T12:32:35;37.70;46.30
14471;DHT22;7321;50.802;4.336;2022-07-19T12:35:06;37.80;46.50
14471;DHT22;7321;50.802;4.336;2022-07-19T12:37:37;37.80;46.60
14471;DHT22;7321;50.802;4.336;2022-07-19T12:45:18;37.60;45.70
14471;DHT22;7321;50.802;4.336;2022-07-19T12:47:45;37.70;45.90
14471;DHT22;7321;50.802;4.336;2022-07-19T12:51:06;37.80;45.60
14471;DHT22;7321;50.802;4.336;2022-07-19T12:53:13;38.00;44.90
14471;DHT22;7321;50.802;4.336;2022-07-19T12:55:40;37.90;45.40
14471;DHT22;7321;50.802;4.336;2022-07-19T12:58:10;37.90;44.90
14471;DHT22;7321;50.802;4.336;2022-07-19T13:00:37;38.00;45.20
14471;DHT22;7321;50.802;4.336;2022-07-19T13:03:05;38.00;45.10
14471;DHT22;7321;50.802;4.336;2022-07-19T13:05:32;37.90;44.60
14471;DHT22;7321;50.802;4.336;2022-07-19T13:07:58;37.80;44.90
14471;DHT22;7321;50.802;4.336;2022-07-19T13:10:25;37.80;45.60
14471;DHT22;7321;50.802;4.336;2022-07-19T13:12:51;37.80;44.60
14471;DHT22;7321;50.802;4.336;2022-07-19T13:15:17;37.90;44.40
14471;DHT22;7321;50.802;4.336;2022-07-19T13:17:44;37.90;42.80
14471;DHT22;7321;50.802;4.336;2022-07-19T13:20:10;37.90;42.70
14471;DHT22;7321;50.802;4.336;2022-07-19T13:22:37;37.90;42.60
14471;DHT22;7321;50.802;4.336;2022-07-19T13:25:04;37.80;42.70
14471;DHT22;7321;50.802;4.336;2022-07-19T13:27:30;37.90;42.50
14471;DHT22;7321;50.802;4.336;2022-07-19T13:29:56;37.90;42.80
14471;DHT22;7321;50.802;4.336;2022-07-19T13:32:22;37.90;42.10
14471;DHT22;7321;50.802;4.336;2022-07-19T13:34:48;38.10;42.40
14471;DHT22;7321;50.802;4.336;2022-07-19T13:37:14;38.20;41.80
14471;DHT22;7321;50.802;4.336;2022-07-19T13:39:40;38.30;41.50
14471;DHT22;7321;50.802;4.336;2022-07-19T13:42:05;38.40;41.60
14471;DHT22;7321;50.802;4.336;2022-07-19T13:44:31;38.30;41.50
14471;DHT22;7321;50.802;4.336;2022-07-19T13:46:57;38.20;40.50
14471;DHT22;7321;50.802;4.336;2022-07-19T13:49:23;38.30;40.00
14471;DHT22;7321;50.802;4.336;2022-07-19T13:51:50;38.20;39.60
14471;DHT22;7321;50.802;4.336;2022-07-19T13:54:17;38.20;39.50
14471;DHT22;7321;50.802;4.336;2022-07-19T13:56:42;38.30;40.10
14471;DHT22;7321;50.802;4.336;2022-07-19T13:59:08;38.30;40.20
14471;DHT22;7321;50.802;4.336;2022-07-19T14:01:34;38.40;39.70
14471;DHT22;7321;50.802;4.336;2022-07-19T14:04:01;38.60;39.80
14471;DHT22;7321;50.802;4.336;2022-07-19T14:06:27;38.60;39.00
14471;DHT22;7321;50.802;4.336;2022-07-19T14:08:53;38.60;37.80
14471;DHT22;7321;50.802;4.336;2022-07-19T14:11:20;38.60;37.80
14471;DHT22;7321;50.802;4.336;2022-07-19T14:13:46;38.70;38.40
14471;DHT22;7321;50.802;4.336;2022-07-19T14:16:12;38.80;39.00
14471;DHT22;7321;50.802;4.336;2022-07-19T14:18:38;38.80;38.20
14471;DHT22;7321;50.802;4.336;2022-07-19T14:21:03;38.70;37.90
14471;DHT22;7321;50.802;4.336;2022-07-19T14:23:29;38.50;37.70
14471;DHT22;7321;50.802;4.336;2022-07-19T14:25:56;38.60;37.50
14471;DHT22;7321;50.802;4.336;2022-07-19T14:28:22;38.60;37.50
14471;DHT22;7321;50.802;4.336;2022-07-19T14:30:48;38.70;37.40
14471;DHT22;7321;50.802;4.336;2022-07-19T14:33:14;38.80;37.80
14471;DHT22;7321;50.802;4.336;2022-07-19T14:35:40;38.80;37.70
14471;DHT22;7321;50.802;4.336;2022-07-19T14:38:06;38.90;37.50
14471;DHT22;7321;50.802;4.336;2022-07-19T14:40:31;38.90;36.10
14471;DHT22;7321;50.802;4.336;2022-07-19T14:42:57;38.80;36.50
14471;DHT22;7321;50.802;4.336;2022-07-19T14:45:23;38.70;36.20
14471;DHT22;7321;50.802;4.336;2022-07-19T14:47:49;38.70;36.50
14471;DHT22;7321;50.802;4.336;2022-07-19T14:50:15;38.70;36.30
14471;DHT22;7321;50.802;4.336;2022-07-19T14:52:41;38.60;36.00
14471;DHT22;7321;50.802;4.336;2022-07-19T14:55:10;38.60;35.50
14471;DHT22;7321;50.802;4.336;2022-07-19T14:57:36;38.70;35.40
14471;DHT22;7321;50.802;4.336;2022-07-19T15:00:04;38.70;35.40
14471;DHT22;7321;50.802;4.336;2022-07-19T15:02:31;38.70;35.30
14471;DHT22;7321;50.802;4.336;2022-07-19T15:04:57;38.90;34.20
14471;DHT22;7321;50.802;4.336;2022-07-19T15:07:24;39.10;34.90
14471;DHT22;7321;50.802;4.336;2022-07-19T15:09:50;39.50;34.50
14471;DHT22;7321;50.802;4.336;2022-07-19T15:12:15;39.70;34.10
14471;DHT22;7321;50.802;4.336;2022-07-19T15:14:44;39.70;34.30
14471;DHT22;7321;50.802;4.336;2022-07-19T15:17:10;39.80;33.70
14471;DHT22;7321;50.802;4.336;2022-07-19T15:19:39;39.80;33.80
14471;DHT22;7321;50.802;4.336;2022-07-19T15:22:05;39.90;34.10
14471;DHT22;7321;50.802;4.336;2022-07-19T15:24:30;39.90;33.70
14471;DHT22;7321;50.802;4.336;2022-07-19T15:26:56;40.00;33.60
14471;DHT22;7321;50.802;4.336;2022-07-19T15:29:22;40.30;34.10
14471;DHT22;7321;50.802;4.336;2022-07-19T15:31:48;40.40;33.60
14471;DHT22;7321;50.802;4.336;2022-07-19T15:34:16;40.50;33.50
14471;DHT22;7321;50.802;4.336;2022-07-19T15:36:43;40.50;33.30
14471;DHT22;7321;50.802;4.336;2022-07-19T15:39:09;40.60;33.30
14471;DHT22;7321;50.802;4.336;2022-07-19T15:41:35;40.70;33.10
14471;DHT22;7321;50.802;4.336;2022-07-19T15:44:01;40.80;32.90
14471;DHT22;7321;50.802;4.336;2022-07-19T15:46:28;41.00;33.20
14471;DHT22;7321;50.802;4.336;2022-07-19T15:48:55;41.00;33.20
14471;DHT22;7321;50.802;4.336;2022-07-19T15:51:21;41.20;33.20
14471;DHT22;7321;50.802;4.336;2022-07-19T15:53:47;41.20;33.20
14471;DHT22;7321;50.802;4.336;2022-07-19T15:56:13;41.30;33.50
14471;DHT22;7321;50.802;4.336;2022-07-19T15:58:39;41.10;32.40
14471;DHT22;7321;50.802;4.336;2022-07-19T16:01:05;41.10;32.60
14471;DHT22;7321;50.802;4.336;2022-07-19T16:03:31;41.10;32.90
14471;DHT22;7321;50.802;4.336;2022-07-19T16:05:56;41.40;32.90
14471;DHT22;7321;50.802;4.336;2022-07-19T16:08:22;41.40;32.90
14471;DHT22;7321;50.802;4.336;2022-07-19T16:10:48;41.40;31.70
14471;DHT22;7321;50.802;4.336;2022-07-19T16:13:14;41.40;32.10
14471;DHT22;7321;50.802;4.336;2022-07-19T16:15:40;41.50;32.20
14471;DHT22;7321;50.802;4.336;2022-07-19T16:18:10;41.90;32.10
14471;DHT22;7321;50.802;4.336;2022-07-19T16:20:36;42.10;32.80
14471;DHT22;7321;50.802;4.336;2022-07-19T16:23:01;42.20;32.30
14471;DHT22;7321;50.802;4.336;2022-07-19T16:25:27;42.50;32.00